Time;durP1;ratioP1;P1;durP2;ratioP2;P2;SDS_P1;SDS_P2;PMS_P1;PMS_P2;Temp;Humidity;BMP_temperature;BMP_pressure;BME280_temperature;BME280_humidity;BME280_pressure;Samples;Min_cycle;Max_cycle;Signal;HPM_P1;HPM_P2
2022/01/31 00:02:22;;;;;;;0.80;0.63;;;3.80;99.90;;;;;;5069241;28;20945;-73
2022/01/31 00:04:47;;;;;;;0.70;0.53;;;3.80;99.90;;;;;;5061352;28;20217;-73
2022/01/31 00:07:13;;;;;;;0.70;0.47;;;3.80;99.90;;;;;;5067852;28;20202;-73
2022/01/31 00:09:43;;;;;;;0.80;0.60;;;3.70;99.90;;;;;;5067482;28;20245;-73
2022/01/31 00:12:14;;;;;;;1.10;0.60;;;3.70;99.90;;;;;;5070166;28;20265;-74
2022/01/31 00:14:45;;;;;;;0.70;0.50;;;3.70;99.90;;;;;;5061971;28;20487;-75
2022/01/31 00:17:12;;;;;;;0.80;0.60;;;3.80;99.90;;;;;;5068739;28;20447;-74
2022/01/31 00:19:39;;;;;;;0.70;0.50;;;3.80;99.90;;;;;;5067832;28;20474;-74
2022/01/31 00:22:08;;;;;;;0.70;0.50;;;3.90;99.90;;;;;;5080320;28;20439;-74
2022/01/31 00:24:34;;;;;;;1.93;1.47;;;3.90;99.90;;;;;;5073069;28;20459;-74
2022/01/31 00:27:00;;;;;;;1.20;1.07;;;4.00;99.90;;;;;;5068177;28;21030;-74
2022/01/31 00:29:26;;;;;;;0.70;0.40;;;4.00;99.90;;;;;;5071018;28;20821;-74
2022/01/31 00:31:51;;;;;;;0.70;0.40;;;4.10;99.90;;;;;;5082039;28;20432;-74
2022/01/31 00:34:17;;;;;;;0.70;0.50;;;4.20;99.90;;;;;;5071874;28;20174;-74
2022/01/31 00:36:43;;;;;;;0.70;0.50;;;4.20;99.90;;;;;;5072526;28;20234;-73
2022/01/31 00:39:08;;;;;;;0.70;0.53;;;4.20;99.90;;;;;;5070707;28;20251;-74
2022/01/31 00:41:34;;;;;;;0.70;0.50;;;4.40;99.90;;;;;;5072408;28;20181;-74
2022/01/31 00:44:17;;;;;;;0.70;0.53;;;4.40;99.90;;;;;;5061110;28;20196;-74
2022/01/31 00:46:50;;;;;;;0.70;0.50;;;4.50;99.90;;;;;;5069251;28;20542;-74
2022/01/31 00:49:27;;;;;;;0.70;0.40;;;4.50;99.90;;;;;;5070760;28;20987;-74
2022/01/31 00:51:52;;;;;;;0.70;0.50;;;4.60;99.90;;;;;;5070949;28;20420;-74
2022/01/31 00:54:18;;;;;;;0.70;0.40;;;4.60;99.90;;;;;;5075018;28;20805;-74
2022/01/31 00:56:43;;;;;;;0.80;0.60;;;4.70;99.90;;;;;;5090749;28;20266;-74
2022/01/31 00:59:09;;;;;;;7.60;1.10;;;4.70;99.90;;;;;;5070859;28;20206;-74
2022/01/31 01:01:34;;;;;;;0.70;0.50;;;4.70;99.90;;;;;;5060669;28;20182;-74
2022/01/31 01:04:00;;;;;;;0.83;0.83;;;4.80;99.90;;;;;;5059435;28;20186;-74
2022/01/31 01:06:26;;;;;;;0.70;0.47;;;4.70;99.90;;;;;;5068145;28;20178;-74
2022/01/31 01:08:51;;;;;;;0.70;0.50;;;4.80;99.90;;;;;;5067963;28;20206;-74
2022/01/31 01:11:17;;;;;;;0.80;0.80;;;4.80;99.90;;;;;;5066950;28;20181;-74
2022/01/31 01:13:42;;;;;;;0.70;0.50;;;4.80;99.90;;;;;;5070085;28;20174;-74
2022/01/31 01:16:08;;;;;;;0.70;0.50;;;4.80;99.90;;;;;;5057176;28;20178;-74
2022/01/31 01:18:33;;;;;;;0.70;0.50;;;4.80;99.90;;;;;;5057074;28;20593;-74
2022/01/31 01:20:59;;;;;;;0.80;0.60;;;4.90;99.90;;;;;;5063984;28;20183;-74
2022/01/31 01:23:24;;;;;;;0.70;0.40;;;4.90;99.90;;;;;;5071674;28;20178;-74
2022/01/31 01:25:51;;;;;;;0.70;0.50;;;4.90;99.90;;;;;;5071620;28;20182;-73
2022/01/31 01:28:17;;;;;;;0.70;0.50;;;5.00;99.90;;;;;;5071555;28;20205;-74
2022/01/31 01:30:42;;;;;;;0.70;0.50;;;5.10;99.90;;;;;;5061749;28;20917;-74
2022/01/31 01:33:18;;;;;;;0.70;0.50;;;5.20;99.90;;;;;;5060326;28;20182;-74
2022/01/31 01:35:45;;;;;;;0.70;0.50;;;5.20;99.90;;;;;;5063584;28;20166;-73
2022/01/31 01:38:15;;;;;;;0.70;0.50;;;5.30;99.90;;;;;;5068845;28;20448;-74
2022/01/31 01:40:41;;;;;;;0.70;0.43;;;5.40;99.90;;;;;;5074216;28;20494;-74
2022/01/31 01:43:07;;;;;;;0.70;0.50;;;5.40;99.90;;;;;;5074334;28;20514;-74
2022/01/31 01:45:32;;;;;;;0.70;0.50;;;5.50;99.90;;;;;;5072783;28;20527;-74
2022/01/31 01:47:58;;;;;;;0.70;0.50;;;5.50;99.90;;;;;;5074574;28;20474;-74
2022/01/31 01:50:24;;;;;;;0.70;0.50;;;5.50;99.90;;;;;;5073970;28;20174;-74
2022/01/31 01:52:52;;;;;;;0.70;0.50;;;5.50;99.90;;;;;;5075116;28;20541;-74
2022/01/31 01:55:18;;;;;;;0.70;0.50;;;5.60;99.90;;;;;;5075561;28;20170;-73
2022/01/31 01:57:43;;;;;;;0.70;0.50;;;5.50;99.90;;;;;;5075369;28;20453;-73
2022/01/31 02:00:15;;;;;;;0.70;0.50;;;5.60;99.90;;;;;;5077321;28;20626;-73
2022/01/31 02:02:43;;;;;;;0.70;0.50;;;5.60;99.90;;;;;;5074000;28;20166;-71
2022/01/31 02:05:09;;;;;;;0.70;0.50;;;5.60;99.90;;;;;;5072621;28;20416;-71
2022/01/31 02:07:36;;;;;;;0.70;0.50;;;5.70;99.90;;;;;;5066325;28;20445;-71
2022/01/31 02:10:06;;;;;;;0.70;0.50;;;5.70;99.90;;;;;;5067329;28;20667;-71
2022/01/31 02:12:42;;;;;;;0.70;0.40;;;5.70;99.90;;;;;;5075075;28;20519;-71
2022/01/31 02:15:09;;;;;;;0.70;0.70;;;5.70;99.90;;;;;;5078426;28;20436;-72
2022/01/31 02:17:35;;;;;;;1.03;0.90;;;5.80;99.90;;;;;;5069801;28;20425;-72
2022/01/31 02:20:01;;;;;;;0.70;0.50;;;5.80;99.90;;;;;;5074658;28;20424;-72
2022/01/31 02:22:26;;;;;;;0.70;0.50;;;5.80;99.90;;;;;;5074787;28;20473;-73
2022/01/31 02:24:52;;;;;;;0.70;0.60;;;5.90;99.90;;;;;;5071574;28;20167;-72
2022/01/31 02:27:29;;;;;;;0.90;0.70;;;5.80;99.90;;;;;;5069504;28;20197;-72
2022/01/31 02:29:55;;;;;;;0.70;0.50;;;5.90;99.90;;;;;;5067975;28;20170;-72
2022/01/31 02:32:22;;;;;;;0.70;0.50;;;5.90;99.90;;;;;;5075024;28;20424;-72
2022/01/31 02:34:49;;;;;;;0.70;0.50;;;5.90;99.90;;;;;;5081186;28;21919;-72
2022/01/31 02:37:15;;;;;;;0.70;0.50;;;6.00;99.90;;;;;;5074815;28;20420;-72
2022/01/31 02:39:41;;;;;;;2.03;1.93;;;5.90;99.90;;;;;;5074223;28;20809;-72
2022/01/31 02:42:07;;;;;;;0.70;0.60;;;5.90;99.90;;;;;;5074746;28;20432;-72
2022/01/31 02:44:32;;;;;;;0.70;0.40;;;5.90;99.90;;;;;;5073799;28;20190;-72
2022/01/31 02:46:58;;;;;;;0.70;0.50;;;5.80;99.90;;;;;;5070253;28;20879;-72
2022/01/31 02:49:28;;;;;;;0.70;0.50;;;5.70;99.90;;;;;;5064097;28;20253;-72
2022/01/31 02:51:59;;;;;;;0.70;0.60;;;5.70;99.90;;;;;;5075176;28;20159;-71
2022/01/31 02:54:25;;;;;;;0.70;0.40;;;5.60;99.90;;;;;;5075694;28;20520;-72
2022/01/31 02:56:52;;;;;;;0.70;0.40;;;5.50;99.90;;;;;;5068587;28;20424;-73
2022/01/31 02:59:18;;;;;;;0.70;0.50;;;5.40;99.90;;;;;;5073552;28;20452;-74
2022/01/31 03:01:44;;;;;;;0.70;0.50;;;5.30;99.90;;;;;;5063977;28;20516;-73
2022/01/31 03:04:10;;;;;;;0.70;0.50;;;5.10;99.90;;;;;;5074285;28;20598;-74
2022/01/31 03:06:38;;;;;;;0.70;0.50;;;5.00;99.90;;;;;;5073713;28;20197;-73
2022/01/31 03:09:05;;;;;;;4.00;3.37;;;4.90;99.90;;;;;;5068940;28;20459;-72
2022/01/31 03:11:31;;;;;;;2.80;2.60;;;4.90;99.90;;;;;;5069794;28;20917;-72
2022/01/31 03:13:56;;;;;;;0.70;0.40;;;4.90;99.90;;;;;;5071963;28;20776;-72
2022/01/31 03:16:22;;;;;;;0.70;0.50;;;4.80;99.90;;;;;;5085772;28;20426;-72
2022/01/31 03:18:47;;;;;;;0.80;0.60;;;4.70;99.90;;;;;;5071804;28;20201;-72
2022/01/31 03:21:14;;;;;;;0.70;0.50;;;4.80;99.90;;;;;;5067123;28;20529;-72
2022/01/31 03:23:40;;;;;;;0.70;0.50;;;4.70;99.90;;;;;;5057784;28;20665;-72
2022/01/31 03:26:05;;;;;;;0.70;0.50;;;4.60;99.90;;;;;;5065806;28;20429;-72
2022/01/31 03:28:31;;;;;;;0.70;0.50;;;4.70;99.90;;;;;;5071563;28;20209;-71
2022/01/31 03:30:56;;;;;;;0.70;0.50;;;4.60;99.90;;;;;;5078749;28;20658;-72
2022/01/31 03:33:22;;;;;;;0.70;0.50;;;4.60;99.90;;;;;;5071396;28;20253;-72
2022/01/31 03:35:48;;;;;;;0.70;0.40;;;4.50;99.90;;;;;;5073814;28;20229;-72
2022/01/31 03:38:13;;;;;;;0.70;0.50;;;4.50;99.90;;;;;;5071897;28;20210;-71
2022/01/31 03:40:39;;;;;;;0.70;0.50;;;4.40;99.90;;;;;;5082351;28;20177;-71
2022/01/31 03:43:05;;;;;;;0.70;0.47;;;4.40;99.90;;;;;;5058667;28;20229;-71
2022/01/31 03:45:34;;;;;;;0.80;0.73;;;4.50;99.90;;;;;;5070169;28;20196;-71
2022/01/31 03:48:00;;;;;;;0.70;0.50;;;4.40;99.90;;;;;;5073027;28;20287;-71
2022/01/31 03:50:27;;;;;;;0.70;0.53;;;4.40;99.90;;;;;;5073056;28;20424;-71
2022/01/31 03:52:53;;;;;;;0.70;0.50;;;4.50;99.90;;;;;;5071498;28;20431;-71
2022/01/31 03:55:19;;;;;;;0.70;0.50;;;4.40;99.90;;;;;;5072962;28;20421;-71
2022/01/31 03:57:45;;;;;;;0.70;0.50;;;4.50;99.90;;;;;;5077016;28;20454;-71
2022/01/31 04:00:13;;;;;;;1.43;1.33;;;4.50;99.90;;;;;;5080018;28;20484;-71
2022/01/31 04:02:41;;;;;;;0.70;0.40;;;4.50;99.90;;;;;;5058183;28;20429;-71
2022/01/31 04:05:07;;;;;;;0.70;0.40;;;4.50;99.90;;;;;;5068283;28;20429;-71
2022/01/31 04:07:33;;;;;;;1.90;1.80;;;4.60;99.90;;;;;;5061732;28;20868;-71
2022/01/31 04:09:59;;;;;;;0.70;0.50;;;4.60;99.90;;;;;;5072667;28;20522;-71
2022/01/31 04:12:25;;;;;;;1.93;1.83;;;4.70;99.90;;;;;;5072954;28;20519;-71
2022/01/31 04:14:51;;;;;;;0.70;0.50;;;4.80;99.90;;;;;;5062161;28;20171;-72
2022/01/31 04:17:19;;;;;;;0.70;0.50;;;4.80;99.90;;;;;;5057713;28;20821;-71
2022/01/31 04:19:46;;;;;;;0.70;0.50;;;4.80;99.90;;;;;;5072893;28;20229;-71
2022/01/31 04:22:15;;;;;;;0.70;0.60;;;4.80;99.90;;;;;;5077442;28;20433;-71
2022/01/31 04:24:41;;;;;;;0.70;0.50;;;4.80;99.90;;;;;;5069280;28;20454;-71
2022/01/31 04:27:09;;;;;;;0.70;0.43;;;4.80;99.90;;;;;;5071194;28;20999;-71
2022/01/31 04:29:39;;;;;;;0.73;0.60;;;4.90;99.90;;;;;;5071883;28;20440;-71
2022/01/31 04:32:05;;;;;;;0.70;0.50;;;5.00;99.90;;;;;;5070225;28;20440;-71
2022/01/31 04:34:31;;;;;;;0.70;0.43;;;5.10;99.90;;;;;;5064488;28;20429;-71
2022/01/31 04:36:58;;;;;;;0.70;0.50;;;5.10;99.90;;;;;;5077759;28;20439;-71
2022/01/31 04:39:24;;;;;;;0.70;0.50;;;5.20;99.90;;;;;;5081529;28;20482;-71
2022/01/31 04:41:50;;;;;;;0.70;0.50;;;5.20;99.90;;;;;;5074331;28;20428;-71
2022/01/31 04:44:17;;;;;;;0.70;0.50;;;5.20;99.90;;;;;;5072073;28;20443;-71
2022/01/31 04:46:48;;;;;;;0.70;0.50;;;5.30;99.90;;;;;;5070202;28;20451;-71
2022/01/31 04:49:14;;;;;;;0.70;0.40;;;5.40;99.90;;;;;;5052376;28;20474;-71
2022/01/31 04:51:40;;;;;;;0.80;0.60;;;5.40;99.90;;;;;;5066358;28;20786;-71
2022/01/31 04:54:06;;;;;;;0.63;0.40;;;5.50;99.90;;;;;;5079545;28;20444;-72
2022/01/31 04:56:31;;;;;;;0.70;0.50;;;5.60;99.90;;;;;;5080019;28;20176;-72
2022/01/31 04:58:57;;;;;;;0.70;0.50;;;5.70;99.90;;;;;;5071638;28;20364;-71
2022/01/31 05:01:23;;;;;;;0.70;0.50;;;5.70;99.90;;;;;;5072005;28;20182;-71
2022/01/31 05:03:49;;;;;;;0.70;0.50;;;5.70;99.90;;;;;;5055820;28;20174;-71
2022/01/31 05:06:18;;;;;;;1.77;0.80;;;5.70;99.90;;;;;;5072010;28;20959;-71
2022/01/31 05:08:43;;;;;;;0.70;0.60;;;5.70;99.90;;;;;;5071286;28;20814;-71
2022/01/31 05:11:11;;;;;;;0.70;0.50;;;5.70;99.90;;;;;;5081511;28;20492;-71
2022/01/31 05:13:37;;;;;;;0.70;0.40;;;5.80;99.90;;;;;;5083169;28;20640;-71
2022/01/31 05:16:06;;;;;;;0.67;0.47;;;5.80;99.90;;;;;;5067682;28;20425;-71
2022/01/31 05:18:32;;;;;;;0.70;0.50;;;5.80;99.90;;;;;;5060566;28;20851;-71
2022/01/31 05:20:58;;;;;;;0.70;0.50;;;5.90;99.90;;;;;;5057984;28;20905;-71
2022/01/31 05:23:24;;;;;;;0.60;0.50;;;5.90;99.90;;;;;;5059444;28;20427;-71
2022/01/31 05:25:49;;;;;;;0.70;0.50;;;5.90;99.90;;;;;;5072515;28;20182;-71
2022/01/31 05:28:15;;;;;;;0.70;0.60;;;6.00;99.90;;;;;;5071285;28;20205;-71
2022/01/31 05:30:40;;;;;;;0.60;0.50;;;6.00;99.90;;;;;;5067248;28;20290;-72
2022/01/31 05:33:06;;;;;;;0.70;0.50;;;6.00;99.90;;;;;;5058410;28;20183;-71
2022/01/31 05:35:32;;;;;;;0.70;0.50;;;6.00;99.90;;;;;;5067064;28;20174;-71
2022/01/31 05:37:58;;;;;;;0.70;0.50;;;6.00;99.90;;;;;;5066614;28;20262;-71
2022/01/31 05:40:24;;;;;;;0.70;0.50;;;6.00;99.90;;;;;;5067115;28;20511;-71
2022/01/31 05:42:49;;;;;;;0.70;0.40;;;6.00;99.90;;;;;;5055936;28;20185;-71
2022/01/31 05:45:15;;;;;;;0.70;0.50;;;6.00;99.90;;;;;;5080157;28;20177;-72
2022/01/31 05:47:41;;;;;;;0.70;0.50;;;6.00;99.90;;;;;;5081679;28;20277;-72
2022/01/31 05:50:07;;;;;;;0.80;0.70;;;6.10;99.90;;;;;;5070125;28;20220;-72
2022/01/31 05:52:33;;;;;;;0.70;0.50;;;6.10;99.90;;;;;;5055556;28;20213;-71
2022/01/31 05:54:59;;;;;;;0.80;0.77;;;6.00;99.90;;;;;;5071311;28;20456;-71
2022/01/31 05:57:24;;;;;;;0.67;0.50;;;6.10;99.90;;;;;;5071568;28;20436;-71
2022/01/31 05:59:51;;;;;;;0.63;0.40;;;6.10;99.90;;;;;;5058939;28;20201;-72
2022/01/31 06:02:16;;;;;;;0.70;0.70;;;6.10;99.90;;;;;;5071377;28;20179;-71
2022/01/31 06:04:42;;;;;;;0.70;0.50;;;6.10;99.90;;;;;;5069696;28;20973;-72
2022/01/31 06:07:08;;;;;;;0.63;0.50;;;6.20;99.90;;;;;;5075726;28;20475;-72
2022/01/31 06:09:33;;;;;;;1.00;1.00;;;6.10;99.90;;;;;;5070831;28;20292;-72
2022/01/31 06:12:02;;;;;;;0.70;0.50;;;6.10;99.90;;;;;;5061430;28;20171;-72
2022/01/31 06:14:28;;;;;;;0.63;0.50;;;6.20;99.90;;;;;;5051791;28;20250;-72
2022/01/31 06:16:53;;;;;;;0.70;0.50;;;6.20;99.90;;;;;;5059154;28;20555;-72
2022/01/31 06:19:19;;;;;;;0.60;0.50;;;6.20;99.90;;;;;;5071099;28;20860;-72
2022/01/31 06:21:44;;;;;;;0.60;0.50;;;6.20;99.90;;;;;;5071328;28;20178;-72
2022/01/31 06:24:11;;;;;;;0.70;0.60;;;6.10;99.90;;;;;;5071092;28;20250;-72
2022/01/31 06:26:37;;;;;;;0.70;0.60;;;6.20;99.90;;;;;;5064339;28;20178;-72
2022/01/31 06:29:03;;;;;;;0.60;0.47;;;6.20;99.90;;;;;;5054798;28;20433;-72
2022/01/31 06:31:30;;;;;;;1.43;1.00;;;6.20;99.90;;;;;;5063269;28;20462;-72
2022/01/31 06:33:57;;;;;;;0.70;0.47;;;6.20;99.90;;;;;;5059902;28;20425;-72
2022/01/31 06:36:23;;;;;;;0.70;0.43;;;6.30;99.90;;;;;;5070436;28;20413;-72
2022/01/31 06:38:49;;;;;;;0.70;0.40;;;6.30;99.90;;;;;;5070770;28;20444;-72
2022/01/31 06:41:17;;;;;;;0.70;0.50;;;6.30;99.90;;;;;;5063837;28;20448;-72
2022/01/31 06:43:43;;;;;;;0.73;0.73;;;6.30;99.90;;;;;;5072977;28;20431;-72
2022/01/31 06:46:09;;;;;;;0.70;0.40;;;6.30;99.90;;;;;;5075333;28;20417;-72
2022/01/31 06:48:34;;;;;;;0.70;0.50;;;6.30;99.90;;;;;;5084923;28;20197;-73
2022/01/31 06:51:00;;;;;;;0.70;0.50;;;6.20;99.90;;;;;;5070831;28;20210;-72
2022/01/31 06:53:27;;;;;;;0.70;0.60;;;6.20;99.90;;;;;;5074077;28;20182;-72
2022/01/31 06:55:57;;;;;;;0.67;0.40;;;6.20;99.90;;;;;;5072964;28;20216;-72
2022/01/31 06:58:24;;;;;;;0.60;0.40;;;6.10;99.90;;;;;;5074099;28;20969;-72
2022/01/31 07:00:50;;;;;;;0.70;0.50;;;6.20;99.90;;;;;;5073999;28;20428;-72
2022/01/31 07:03:15;;;;;;;0.70;0.50;;;6.20;99.90;;;;;;5074212;28;20417;-72
2022/01/31 07:05:42;;;;;;;1.47;1.33;;;6.20;99.90;;;;;;5082360;28;20182;-72
2022/01/31 07:08:08;;;;;;;0.70;0.50;;;6.10;99.90;;;;;;5082947;28;20467;-72
2022/01/31 07:10:34;;;;;;;0.70;0.50;;;6.10;99.90;;;;;;5072006;28;20420;-72
2022/01/31 07:13:03;;;;;;;0.70;0.50;;;6.00;99.90;;;;;;5073524;28;20420;-72
2022/01/31 07:15:28;;;;;;;0.70;0.40;;;6.00;99.90;;;;;;5074034;28;20291;-72
2022/01/31 07:17:54;;;;;;;0.70;0.50;;;5.90;99.90;;;;;;5073847;28;20444;-71
2022/01/31 07:20:34;;;;;;;0.63;0.40;;;5.90;99.90;;;;;;5068941;28;20581;-72
2022/01/31 07:23:03;;;;;;;0.70;0.40;;;5.90;99.90;;;;;;5064223;28;20174;-72
2022/01/31 07:25:35;;;;;;;0.70;0.50;;;5.80;99.90;;;;;;5078191;28;20423;-71
2022/01/31 07:28:20;;;;;;;0.70;0.50;;;5.80;99.90;;;;;;5058072;28;20460;-72
2022/01/31 07:30:49;;;;;;;0.70;0.50;;;5.80;99.90;;;;;;5064010;28;20863;-71
2022/01/31 07:33:15;;;;;;;0.70;0.50;;;5.80;99.90;;;;;;5073899;28;20423;-72
2022/01/31 07:35:43;;;;;;;0.60;0.50;;;5.70;99.90;;;;;;5073773;28;20424;-71
2022/01/31 07:38:09;;;;;;;0.70;0.40;;;5.60;99.90;;;;;;5064712;28;20478;-72
2022/01/31 07:40:36;;;;;;;0.60;0.47;;;5.60;99.90;;;;;;5072849;28;20424;-72
2022/01/31 07:43:01;;;;;;;0.60;0.40;;;5.50;99.90;;;;;;5073422;28;20929;-72
2022/01/31 07:45:27;;;;;;;0.70;0.50;;;5.50;99.90;;;;;;5083547;28;20428;-72
2022/01/31 07:47:52;;;;;;;0.67;0.43;;;5.50;99.90;;;;;;5075252;28;20247;-71
2022/01/31 07:50:19;;;;;;;0.70;0.50;;;5.50;99.90;;;;;;5066808;28;20673;-72
2022/01/31 07:52:44;;;;;;;0.70;0.70;;;5.50;99.90;;;;;;5082226;28;20182;-72
2022/01/31 07:55:11;;;;;;;0.70;0.50;;;5.50;99.90;;;;;;5083666;28;20911;-72
2022/01/31 07:57:38;;;;;;;0.70;0.50;;;5.50;99.90;;;;;;5076144;28;20170;-71
2022/01/31 08:00:06;;;;;;;0.63;0.40;;;5.50;99.90;;;;;;5085606;28;20995;-72
2022/01/31 08:02:31;;;;;;;0.60;0.50;;;5.50;99.90;;;;;;5074788;28;20481;-72
2022/01/31 08:04:57;;;;;;;0.67;0.43;;;5.50;99.90;;;;;;5073479;28;20825;-72
2022/01/31 08:07:23;;;;;;;0.70;0.50;;;5.60;99.90;;;;;;5073331;28;20675;-72
2022/01/31 08:09:48;;;;;;;0.60;0.50;;;5.60;99.90;;;;;;5072683;28;20248;-72
2022/01/31 08:12:14;;;;;;;0.70;0.50;;;5.60;99.90;;;;;;5074732;28;20466;-72
2022/01/31 08:14:40;;;;;;;0.67;0.50;;;5.70;99.90;;;;;;5071279;28;20236;-72
2022/01/31 08:17:06;;;;;;;0.63;0.40;;;5.70;99.90;;;;;;5081760;28;20666;-72
2022/01/31 08:19:31;;;;;;;0.70;0.43;;;5.70;99.90;;;;;;5083644;28;20190;-72
2022/01/31 08:21:57;;;;;;;0.70;0.50;;;5.70;99.90;;;;;;5074129;28;20753;-72
2022/01/31 08:24:23;;;;;;;0.60;0.40;;;5.70;99.90;;;;;;5074221;28;20193;-72
2022/01/31 08:26:48;;;;;;;2.63;2.53;;;5.80;99.90;;;;;;5080405;28;20206;-72
2022/01/31 08:29:20;;;;;;;0.60;0.40;;;5.80;99.90;;;;;;5078463;28;20562;-72
2022/01/31 08:31:48;;;;;;;0.70;0.50;;;5.80;99.90;;;;;;5082673;28;20173;-72
2022/01/31 08:36:42;;;;;;;0.83;0.83;;;5.80;99.90;;;;;;5074467;28;20417;-73
2022/01/31 08:39:11;;;;;;;0.70;0.40;;;5.80;99.90;;;;;;5069813;28;20441;-72
2022/01/31 08:41:39;;;;;;;0.60;0.40;;;5.80;99.90;;;;;;5062419;28;20413;-73
2022/01/31 08:44:05;;;;;;;0.70;0.60;;;5.80;99.90;;;;;;5075116;28;20467;-71
2022/01/31 08:46:32;;;;;;;0.63;0.50;;;5.80;99.90;;;;;;5062003;28;20972;-73
2022/01/31 08:48:59;;;;;;;0.90;0.73;;;5.80;99.90;;;;;;5070694;28;20780;-72
2022/01/31 08:51:25;;;;;;;0.63;0.50;;;5.80;99.90;;;;;;5075640;28;20458;-73
2022/01/31 08:53:51;;;;;;;0.60;0.47;;;5.70;99.90;;;;;;5078941;28;20460;-72
2022/01/31 08:56:18;;;;;;;0.70;0.60;;;5.70;99.90;;;;;;5083988;28;20448;-72
2022/01/31 08:58:47;;;;;;;0.60;0.40;;;5.70;99.90;;;;;;5061181;28;20448;-72
2022/01/31 09:01:18;;;;;;;1.30;0.97;;;5.70;99.90;;;;;;5074467;28;20432;-74
2022/01/31 09:06:17;;;;;;;0.70;0.50;;;5.60;99.90;;;;;;5080982;28;20420;-72
2022/01/31 09:08:43;;;;;;;0.70;0.50;;;5.60;99.90;;;;;;5082776;28;20455;-72
2022/01/31 09:11:09;;;;;;;1.10;0.80;;;5.60;99.90;;;;;;5065561;28;20766;-70
2022/01/31 09:13:36;;;;;;;0.87;0.63;;;5.50;99.90;;;;;;5070381;28;20504;-71
2022/01/31 09:16:02;;;;;;;0.67;0.50;;;5.50;99.90;;;;;;5073652;28;20428;-71
2022/01/31 09:18:28;;;;;;;0.70;0.50;;;5.50;99.90;;;;;;5074107;28;20806;-72
2022/01/31 09:20:54;;;;;;;0.67;0.50;;;5.50;99.90;;;;;;5071947;28;20429;-71
2022/01/31 09:23:20;;;;;;;0.60;0.40;;;5.40;99.90;;;;;;5062716;28;20942;-71
2022/01/31 09:25:47;;;;;;;0.70;0.50;;;5.40;99.90;;;;;;5081345;28;20519;-72
2022/01/31 09:28:14;;;;;;;0.60;0.40;;;5.40;99.90;;;;;;5076688;28;20225;-72
2022/01/31 09:30:40;;;;;;;0.80;0.70;;;5.50;99.90;;;;;;5075063;28;20780;-72
2022/01/31 09:33:06;;;;;;;0.67;0.50;;;5.50;99.90;;;;;;5074769;28;20485;-71
2022/01/31 09:35:33;;;;;;;0.70;0.60;;;5.50;99.90;;;;;;5076389;28;20413;-72
2022/01/31 09:38:00;;;;;;;0.70;0.50;;;5.50;99.90;;;;;;5073721;28;20441;-72
2022/01/31 09:40:25;;;;;;;0.60;0.40;;;5.60;99.90;;;;;;5063635;28;20487;-72
2022/01/31 09:43:13;;;;;;;0.60;0.40;;;5.60;99.90;;;;;;5071626;28;20433;-72
2022/01/31 09:48:36;;;;;;;0.63;0.47;;;5.40;99.90;;;;;;5073288;28;20464;-71
2022/01/31 09:51:22;;;;;;;0.60;0.40;;;5.40;99.90;;;;;;5063901;28;21102;-71
2022/01/31 09:53:50;;;;;;;0.67;0.50;;;5.40;99.90;;;;;;5067768;28;20439;-71
2022/01/31 09:56:22;;;;;;;0.60;0.50;;;5.40;99.90;;;;;;5068466;28;20429;-71
2022/01/31 09:58:49;;;;;;;0.60;0.50;;;5.40;99.90;;;;;;5072507;28;20432;-71
2022/01/31 10:01:20;;;;;;;0.60;0.43;;;5.50;99.90;;;;;;5075944;28;20450;-72
2022/01/31 10:04:13;;;;;;;1.73;1.63;;;5.50;99.90;;;;;;5076439;28;20424;-72
2022/01/31 10:06:41;;;;;;;0.60;0.50;;;5.50;99.90;;;;;;5078184;28;20427;-72
2022/01/31 10:09:15;;;;;;;0.60;0.40;;;5.60;99.90;;;;;;5064834;28;20433;-72
2022/01/31 10:11:56;;;;;;;0.60;0.40;;;5.60;99.90;;;;;;5084239;28;20419;-70
2022/01/31 10:17:37;;;;;;;0.60;0.40;;;5.60;99.90;;;;;;5075747;28;20455;-70
2022/01/31 10:20:28;;;;;;;0.60;0.40;;;5.60;99.90;;;;;;5068629;28;20784;-71
2022/01/31 10:22:54;;;;;;;0.60;0.40;;;5.70;99.90;;;;;;5098342;28;20484;-71
2022/01/31 10:25:22;;;;;;;0.70;0.60;;;5.70;99.90;;;;;;5086538;28;20431;-71
2022/01/31 10:27:51;;;;;;;0.60;0.40;;;5.60;99.90;;;;;;5076586;28;20239;-70
2022/01/31 10:30:20;;;;;;;0.60;0.40;;;5.50;99.90;;;;;;5071854;28;20432;-70
2022/01/31 10:32:48;;;;;;;0.60;0.40;;;5.50;99.90;;;;;;5082776;28;20947;-71
2022/01/31 10:35:25;;;;;;;0.70;0.60;;;5.50;99.90;;;;;;5072341;28;20924;-70
2022/01/31 10:37:56;;;;;;;0.70;0.50;;;5.50;99.90;;;;;;5071560;28;20447;-71
2022/01/31 10:54:10;;;;;;;0.63;0.40;;;5.50;99.90;;;;;;5079211;28;20509;-72
2022/01/31 10:56:54;;;;;;;0.60;0.43;;;5.50;99.90;;;;;;5083225;28;20597;-73
2022/01/31 10:59:26;;;;;;;0.60;0.40;;;5.60;99.90;;;;;;5079011;28;20433;-73
2022/01/31 11:01:55;;;;;;;0.60;0.50;;;5.60;99.90;;;;;;5066104;28;20518;-72
2022/01/31 11:04:21;;;;;;;0.60;0.50;;;5.70;99.90;;;;;;5074768;28;20485;-72
2022/01/31 11:06:50;;;;;;;0.70;0.60;;;5.60;99.90;;;;;;5066912;28;20413;-73
2022/01/31 11:09:19;;;;;;;0.60;0.50;;;5.60;99.90;;;;;;5073385;28;20445;-73
2022/01/31 11:11:46;;;;;;;1.10;0.80;;;5.60;99.90;;;;;;5072926;28;20416;-73
2022/01/31 11:14:13;;;;;;;0.60;0.50;;;5.60;99.90;;;;;;5091138;28;20438;-72
2022/01/31 11:16:42;;;;;;;0.60;0.40;;;5.60;99.90;;;;;;5074896;28;20479;-73
2022/01/31 11:19:10;;;;;;;0.60;0.47;;;5.60;99.90;;;;;;5086269;28;20440;-73
2022/01/31 11:21:43;;;;;;;0.60;0.40;;;5.70;99.90;;;;;;5075209;28;20447;-73
2022/01/31 11:24:20;;;;;;;0.70;0.60;;;5.70;99.90;;;;;;5077797;28;20416;-73
2022/01/31 11:26:56;;;;;;;0.67;0.50;;;5.70;99.90;;;;;;5064827;28;20474;-73
2022/01/31 11:29:22;;;;;;;0.60;0.40;;;5.80;99.90;;;;;;5075445;28;20944;-71
2022/01/31 11:31:48;;;;;;;0.60;0.50;;;5.80;99.90;;;;;;5076842;28;20427;-73
2022/01/31 11:34:14;;;;;;;0.60;0.50;;;5.80;99.90;;;;;;5093562;28;20404;-72
2022/01/31 11:36:42;;;;;;;0.60;0.40;;;5.70;99.90;;;;;;5074961;28;20205;-73
2022/01/31 11:39:15;;;;;;;0.60;0.40;;;5.80;99.90;;;;;;5091412;28;20444;-72
2022/01/31 11:41:47;;;;;;;0.70;0.50;;;5.70;99.90;;;;;;5081922;28;20403;-72
2022/01/31 11:44:29;;;;;;;0.60;0.43;;;5.80;99.90;;;;;;5097981;28;20435;-72
2022/01/31 11:46:56;;;;;;;0.60;0.50;;;5.80;99.90;;;;;;5076878;28;20494;-72
2022/01/31 11:49:22;;;;;;;0.60;0.50;;;5.90;99.90;;;;;;5077281;28;20447;-72
2022/01/31 11:52:02;;;;;;;0.60;0.50;;;5.80;99.90;;;;;;5077063;28;20483;-72
2022/01/31 11:54:27;;;;;;;0.60;0.40;;;5.90;99.90;;;;;;5076987;28;20474;-72
2022/01/31 11:56:53;;;;;;;0.60;0.40;;;5.80;99.90;;;;;;5062920;28;20413;-73
2022/01/31 11:59:24;;;;;;;1.13;0.70;;;5.80;99.90;;;;;;5073103;28;20194;-72
2022/01/31 12:01:57;;;;;;;0.60;0.40;;;5.80;99.90;;;;;;5086078;28;20416;-72
2022/01/31 12:04:23;;;;;;;2.93;2.73;;;5.80;99.90;;;;;;5096492;28;20400;-72
2022/01/31 12:06:49;;;;;;;0.60;0.40;;;5.70;99.90;;;;;;5075865;28;20440;-71
2022/01/31 12:09:18;;;;;;;0.60;0.40;;;5.80;99.90;;;;;;5076344;28;20497;-71
2022/01/31 12:12:04;;;;;;;0.60;0.40;;;5.70;99.90;;;;;;5076868;28;20480;-71
2022/01/31 12:14:47;;;;;;;0.60;0.40;;;5.70;99.90;;;;;;5061960;28;20510;-74
2022/01/31 12:17:52;;;;;;;0.60;0.40;;;5.80;99.90;;;;;;5079448;28;20498;-72
2022/01/31 12:23:35;;;;;;;0.77;0.70;;;5.80;99.90;;;;;;5077581;28;20432;-72
2022/01/31 12:26:02;;;;;;;0.60;0.40;;;5.80;99.90;;;;;;5087050;28;20434;-73
2022/01/31 12:28:39;;;;;;;0.60;0.40;;;5.80;99.90;;;;;;5075730;28;20491;-73
2022/01/31 12:31:35;;;;;;;1.67;1.03;;;5.80;99.90;;;;;;5076923;28;20423;-73
2022/01/31 12:34:10;;;;;;;0.60;0.50;;;5.80;99.90;;;;;;5066646;28;20525;-72
2022/01/31 12:36:36;;;;;;;0.70;0.43;;;5.70;99.90;;;;;;5094196;28;20423;-73
2022/01/31 12:39:04;;;;;;;0.60;0.40;;;5.80;99.90;;;;;;5084739;28;21035;-72
2022/01/31 12:41:31;;;;;;;0.63;0.50;;;5.80;99.90;;;;;;5087201;28;20265;-72
2022/01/31 12:44:30;;;;;;;0.60;0.40;;;5.80;99.90;;;;;;5088129;28;20754;-72
2022/01/31 12:47:06;;;;;;;0.70;0.67;;;5.80;99.90;;;;;;5076752;28;20461;-72
2022/01/31 12:49:31;;;;;;;0.70;0.50;;;5.80;99.90;;;;;;5070134;28;20524;-71
2022/01/31 12:52:03;;;;;;;0.60;0.50;;;5.70;99.90;;;;;;5072160;28;20428;-72
2022/01/31 12:54:30;;;;;;;0.60;0.40;;;5.70;99.90;;;;;;5071955;28;20190;-72
2022/01/31 12:57:06;;;;;;;0.70;0.50;;;5.70;99.90;;;;;;5070937;28;20847;-72
2022/01/31 12:59:32;;;;;;;0.80;0.70;;;5.70;99.90;;;;;;5070519;28;20952;-71
2022/01/31 13:01:58;;;;;;;0.70;0.50;;;5.70;99.90;;;;;;5091806;28;20432;-72
2022/01/31 13:04:27;;;;;;;0.70;0.70;;;5.70;99.90;;;;;;5080933;28;20906;-71
2022/01/31 13:06:54;;;;;;;0.77;0.77;;;5.60;99.90;;;;;;5072010;28;20443;-72
2022/01/31 13:09:21;;;;;;;0.70;0.50;;;5.70;99.90;;;;;;5081741;28;20443;-72
2022/01/31 13:12:15;;;;;;;0.63;0.50;;;5.60;99.90;;;;;;5071706;28;20778;-72
2022/01/31 13:14:50;;;;;;;0.70;0.60;;;5.60;99.90;;;;;;5072303;28;20763;-71
2022/01/31 13:17:21;;;;;;;0.60;0.50;;;5.60;99.90;;;;;;5072061;28;20470;-72
2022/01/31 13:19:56;;;;;;;0.63;0.50;;;5.60;99.90;;;;;;5076710;28;20432;-72
2022/01/31 13:22:37;;;;;;;0.60;0.40;;;5.70;99.90;;;;;;5070886;28;20415;-72
2022/01/31 13:25:08;;;;;;;1.03;1.03;;;5.60;99.90;;;;;;5072092;28;20400;-72
2022/01/31 13:27:37;;;;;;;0.70;0.50;;;5.70;99.90;;;;;;5072183;28;20452;-72
2022/01/31 13:30:05;;;;;;;0.60;0.43;;;5.70;99.90;;;;;;5082315;28;20465;-72
2022/01/31 13:32:34;;;;;;;0.63;0.50;;;5.70;99.90;;;;;;5071991;28;20392;-72